Huvudsida
METAR-TAF:

METAR-TAF

Flygplatser :

Sandnessjøens flygplats. Stokka

Sandnessjøen, Norge

latitud: 65-58N, longitud: 012-28E, höjd: 1 m

Aktuellt väderrapport

Denna rapport gjordes för 33 minuter sedan, klockan 17:20 UTC
Vind 7 kt från nord/nordost
Temperatur 21°C
Fuktighet 43%
Tryck 1017 hPa
Sikt 10 km eller mer
Inga moln under 1 500 m eller inga cumulonimbus

METAR: ENST 221720Z 03007KT CAVOK 21/08 Q1017 RMK WIND 300FT 04008KT

Tid: 19:53 (17:53 UTC)

Väderprognos

Denna rapport gjordes för 3 timmar och 53 minuter sedan, klockan 14:00 UTC
Prognos gäller från 22 kl. 15 UTC till 22 kl. 21 UTC
Vind 5 kt från nord/nordost
Sikt 10 km eller mer
Inga moln under 1 500 m eller inga cumulonimbus
Blir
från 22 kl. 19 UTC till 22 kl. 21 UTC
Vind 10 kt från syd/sydost

TAF: ENST 221400Z 2215/2221 02005KT CAVOK BECMG 2219/2221 15010KT

Aktuella väderrapporter och prognoser från 4000 flygplatser (METAR- och TAF-rapporter).

De tillgängliga stationerna syns som gula och röda prickar på kartan.

För musen över prickarna för att se namnen på stationerna.

Klicka sedan för att få väderrapporter och prognoser.

För att ändra kartan: Klicka på de gröna knapparna med ett svart kors på för att zooma in; den gröna knappen med ett streck på för att zooma ut; eller på de gröna pilarna för angränsande kartor.


METAR-TAF: